Meriden, KS

7:35 PM CDT on July 01, 2015 (GMT -0500)
Pleasant Hill Area | | Change Station
CLOSE
Current Station
Personal Weather Station
Location: Topeka, KS
Elevation: 1037 ft
Nearby Weather Stations

Elev 1037 ft 39.15 °N, 95.67 °W | Updated 11 minutes ago

Clear
Clear
88.7 °F
Feels Like 100 °F
N
6.8
Wind Variable Wind from NE

Today
High -- | Low -- °F
--% Chance of Precip.
Yesterday
High -- | Low -- °F
Precip. -- in
5:59 AM 8:52 PM
Full, 100% visible
Pressure 29.74 in
Visibility 10.0 miles
Clouds Clear
Heat Index 100 °F
Dew Point 76 °F
Humidity 67%
Rainfall 0.00 in
Snow Depth Not available.
UV 2 out of 12
Pollen 1.10 out of 12
Air Quality Not available.
Flu Activity Not available.
METAR KTOP 012353Z AUTO 34004KT 10SM CLR 33/22 A2977 RMK AO2 SLP070 T03330217 10339 20294 58003

More Conditions Fewer Conditions

Pressure 29.74 in
Visibility 10.0 miles
Clouds Clear
Heat Index 100 °F
Dew Point 76 °F
Humidity 67%
Rainfall 0.00 in
Snow Depth Not available.
UV 2 out of 12
Pollen 1.10 out of 12
Air Quality Not available.
Flu Activity Not available.
METAR KTOP 012353Z AUTO 34004KT 10SM CLR 33/22 A2977 RMK AO2 SLP070 T03330217 10339 20294 58003

More Conditions Fewer Conditions

10-Day Weather Forecast

×

Almanac

Astronomy

Jul. 01, 2015 Rise Set
Actual Time
Civil Twilight
Nautical Twilight
Astronomical Twilight
Moon
Length of Visible Light
Length of Day
Tomorrow will be .
, % of the Moon is Illuminated

Today's Extremes

State Highs State Lows

Community

WunderPhotos

Upload Photos

1,834,355 photos uploaded!

WunderBlogs® & News

Nearby

Air Quality

  Air Quality AQ Index Pollutant
Not available.

Snow Depth

Station Depth Elevation

Earthquake Activity

City Distance Mag. Time & Date
Minimum magnitude displayed is 2.5.

Coastal Water Temperatures

Place Temperature

Stations

Nearby Weather Stations

Station Location Temp. Windchill Dew Point Humidity Wind Precip. Elev Updated Type